This is the latest recevied weather packets stored in our database for station/object K6CED. If no packets are shown the sender has not sent any weather packets the latest 10 day(s).
| Time | Temp. | Humidity | Pressure | Rain* | Wind** | Luminosity | Snow |
|---|---|---|---|---|---|---|---|
| 1787931502 | 28.33° C | 59% | 1015.9 hPa | 0 mm | - | 354 W/m² | - |
| 1787931197 | 27.78° C | 61% | 1015.8 hPa | 0 mm | - | 332 W/m² | - |
| 1787930897 | 27.78° C | 61% | 1015.9 hPa | 0 mm | - | 309 W/m² | - |
| 1787930597 | 27.78° C | 61% | 1015.8 hPa | 0 mm | - | 293 W/m² | - |
| 1787930292 | 28.33° C | 60% | 1015.8 hPa | 0 mm | - | 255 W/m² | - |
| 1787929992 | 27.22° C | 62% | 1015.8 hPa | 0 mm | - | 246 W/m² | - |
| 1787929690 | 27.78° C | 60% | 1015.9 hPa | 0 mm | - | 149 W/m² | - |
| 1787929385 | 27.78° C | 60% | 1015.7 hPa | 0 mm | - | 213 W/m² | - |
| 1787929083 | 27.78° C | 61% | 1015.8 hPa | 0 mm | - | 200 W/m² | - |
| 1787928779 | 26.67° C | 63% | 1015.7 hPa | 0 mm | - | 189 W/m² | - |
| 1787928477 | 26.67° C | 62% | 1015.6 hPa | 0 mm | - | 171 W/m² | - |
| 1787928171 | 26.67° C | 61% | 1015.8 hPa | 0 mm | - | 154 W/m² | - |
| 1787927870 | 26.67° C | 61% | 1015.7 hPa | 0 mm | - | 138 W/m² | - |
| 1787927565 | 26.67° C | 63% | 1015.7 hPa | 0 mm | - | 124 W/m² | - |
| 1787927260 | 25° C | 66% | 1015.5 hPa | 0 mm | - | 109 W/m² | - |
| 1787926956 | 23.89° C | 69% | 1015.4 hPa | 0 mm | - | 93 W/m² | - |
| 1787926656 | 23.33° C | 70% | 1015.2 hPa | 0 mm | - | 48 W/m² | - |
| 1787926354 | 22.78° C | 69% | 1015.5 hPa | 0 mm | - | 44 W/m² | - |
| 1787926049 | 22.78° C | 69% | 1015.5 hPa | 0 mm | - | 40 W/m² | - |
| 1787925749 | 22.78° C | 69% | 1015.6 hPa | 0 mm | - | 39 W/m² | - |
| 1787925448 | 22.22° C | 71% | 1015.3 hPa | 0 mm | - | 32 W/m² | - |
| 1787925143 | 21.67° C | 72% | 1015.2 hPa | 0 mm | - | 28 W/m² | - |
| 1787924841 | 21.67° C | 72% | 1015.1 hPa | 0 mm | - | 24 W/m² | - |
| 1787924536 | 21.67° C | 72% | 1015.2 hPa | 0 mm | - | 20 W/m² | - |
| 1787924232 | 21.67° C | 73% | 1015.1 hPa | 0 mm | - | 15 W/m² | - |
* Rain latest hour (hover to see other rain measurements)
** Current wind speed in m/s (hover to see current wind gust speed)